sensor_id;sensor_type;location;lat;lon;timestamp;P1;durP1;ratioP1;P2;durP2;ratioP2
13114;SDS011;6623;52.120;8.660;2023-08-01T00:00:28;1.10;;;1.00;;
13114;SDS011;6623;52.120;8.660;2023-08-01T00:02:54;1.03;;;0.93;;
13114;SDS011;6623;52.120;8.660;2023-08-01T00:05:20;1.10;;;1.00;;
13114;SDS011;6623;52.120;8.660;2023-08-01T00:07:45;1.67;;;1.10;;
13114;SDS011;6623;52.120;8.660;2023-08-01T00:10:11;1.10;;;1.00;;
13114;SDS011;6623;52.120;8.660;2023-08-01T00:12:36;1.17;;;1.07;;
13114;SDS011;6623;52.120;8.660;2023-08-01T00:15:03;2.53;;;0.97;;
13114;SDS011;6623;52.120;8.660;2023-08-01T00:17:29;1.43;;;1.00;;
13114;SDS011;6623;52.120;8.660;2023-08-01T00:19:54;0.90;;;0.80;;
13114;SDS011;6623;52.120;8.660;2023-08-01T00:22:20;1.27;;;1.00;;
13114;SDS011;6623;52.120;8.660;2023-08-01T00:24:46;1.10;;;1.00;;
13114;SDS011;6623;52.120;8.660;2023-08-01T00:27:12;0.97;;;0.87;;
13114;SDS011;6623;52.120;8.660;2023-08-01T00:29:38;0.80;;;0.77;;
13114;SDS011;6623;52.120;8.660;2023-08-01T00:32:04;1.53;;;0.80;;
13114;SDS011;6623;52.120;8.660;2023-08-01T00:34:30;1.10;;;1.00;;
13114;SDS011;6623;52.120;8.660;2023-08-01T00:36:56;0.80;;;0.80;;
13114;SDS011;6623;52.120;8.660;2023-08-01T00:39:22;0.90;;;0.90;;
13114;SDS011;6623;52.120;8.660;2023-08-01T00:41:47;1.53;;;1.10;;
13114;SDS011;6623;52.120;8.660;2023-08-01T00:44:13;0.80;;;0.80;;
13114;SDS011;6623;52.120;8.660;2023-08-01T00:46:38;0.90;;;0.90;;
13114;SDS011;6623;52.120;8.660;2023-08-01T00:49:04;1.00;;;0.80;;
13114;SDS011;6623;52.120;8.660;2023-08-01T00:51:30;1.00;;;0.90;;
13114;SDS011;6623;52.120;8.660;2023-08-01T00:53:57;0.80;;;0.70;;
13114;SDS011;6623;52.120;8.660;2023-08-01T00:56:23;1.10;;;0.90;;
13114;SDS011;6623;52.120;8.660;2023-08-01T00:58:49;0.80;;;0.80;;
13114;SDS011;6623;52.120;8.660;2023-08-01T01:01:14;0.90;;;0.80;;
13114;SDS011;6623;52.120;8.660;2023-08-01T01:03:40;0.73;;;0.70;;
13114;SDS011;6623;52.120;8.660;2023-08-01T01:06:08;1.20;;;0.80;;
13114;SDS011;6623;52.120;8.660;2023-08-01T01:08:40;1.00;;;0.80;;
13114;SDS011;6623;52.120;8.660;2023-08-01T01:11:06;0.73;;;0.73;;
13114;SDS011;6623;52.120;8.660;2023-08-01T01:13:32;1.07;;;0.80;;
13114;SDS011;6623;52.120;8.660;2023-08-01T01:15:58;0.80;;;0.80;;
13114;SDS011;6623;52.120;8.660;2023-08-01T01:18:24;0.80;;;0.80;;
13114;SDS011;6623;52.120;8.660;2023-08-01T01:20:49;0.60;;;0.60;;
13114;SDS011;6623;52.120;8.660;2023-08-01T01:23:15;0.83;;;0.80;;
13114;SDS011;6623;52.120;8.660;2023-08-01T01:25:41;0.80;;;0.80;;
13114;SDS011;6623;52.120;8.660;2023-08-01T01:28:07;0.97;;;0.90;;
13114;SDS011;6623;52.120;8.660;2023-08-01T01:30:34;0.70;;;0.70;;
13114;SDS011;6623;52.120;8.660;2023-08-01T01:33:01;1.10;;;0.90;;
13114;SDS011;6623;52.120;8.660;2023-08-01T01:35:28;0.87;;;0.83;;
13114;SDS011;6623;52.120;8.660;2023-08-01T01:37:54;0.80;;;0.80;;
13114;SDS011;6623;52.120;8.660;2023-08-01T01:40:20;1.57;;;0.70;;
13114;SDS011;6623;52.120;8.660;2023-08-01T01:42:45;0.90;;;0.80;;
13114;SDS011;6623;52.120;8.660;2023-08-01T01:45:11;0.80;;;0.80;;
13114;SDS011;6623;52.120;8.660;2023-08-01T01:47:36;0.90;;;0.70;;
13114;SDS011;6623;52.120;8.660;2023-08-01T01:50:02;0.80;;;0.77;;
13114;SDS011;6623;52.120;8.660;2023-08-01T01:52:28;1.00;;;0.80;;
13114;SDS011;6623;52.120;8.660;2023-08-01T01:54:53;0.80;;;0.70;;
13114;SDS011;6623;52.120;8.660;2023-08-01T01:57:19;0.80;;;0.70;;
13114;SDS011;6623;52.120;8.660;2023-08-01T01:59:44;1.13;;;0.70;;
13114;SDS011;6623;52.120;8.660;2023-08-01T02:02:10;0.83;;;0.73;;
13114;SDS011;6623;52.120;8.660;2023-08-01T02:04:35;0.70;;;0.70;;
13114;SDS011;6623;52.120;8.660;2023-08-01T02:07:01;0.87;;;0.80;;
13114;SDS011;6623;52.120;8.660;2023-08-01T02:09:28;1.33;;;0.60;;
13114;SDS011;6623;52.120;8.660;2023-08-01T02:11:53;0.80;;;0.80;;
13114;SDS011;6623;52.120;8.660;2023-08-01T02:14:19;0.73;;;0.73;;
13114;SDS011;6623;52.120;8.660;2023-08-01T02:16:44;1.10;;;0.70;;
13114;SDS011;6623;52.120;8.660;2023-08-01T02:19:10;0.70;;;0.70;;
13114;SDS011;6623;52.120;8.660;2023-08-01T02:21:35;0.67;;;0.67;;
13114;SDS011;6623;52.120;8.660;2023-08-01T02:24:01;1.27;;;0.70;;
13114;SDS011;6623;52.120;8.660;2023-08-01T02:26:28;1.30;;;0.70;;
13114;SDS011;6623;52.120;8.660;2023-08-01T02:28:54;0.73;;;0.73;;
13114;SDS011;6623;52.120;8.660;2023-08-01T02:31:20;0.77;;;0.77;;
13114;SDS011;6623;52.120;8.660;2023-08-01T02:33:45;0.73;;;0.73;;
13114;SDS011;6623;52.120;8.660;2023-08-01T02:36:11;0.80;;;0.80;;
13114;SDS011;6623;52.120;8.660;2023-08-01T02:38:36;1.00;;;0.80;;
13114;SDS011;6623;52.120;8.660;2023-08-01T02:41:02;0.80;;;0.80;;
13114;SDS011;6623;52.120;8.660;2023-08-01T02:43:27;0.93;;;0.60;;
13114;SDS011;6623;52.120;8.660;2023-08-01T02:45:53;0.80;;;0.70;;
13114;SDS011;6623;52.120;8.660;2023-08-01T02:48:18;0.87;;;0.60;;
13114;SDS011;6623;52.120;8.660;2023-08-01T02:50:45;0.93;;;0.83;;
13114;SDS011;6623;52.120;8.660;2023-08-01T02:53:10;0.70;;;0.70;;
13114;SDS011;6623;52.120;8.660;2023-08-01T02:55:36;0.70;;;0.70;;
13114;SDS011;6623;52.120;8.660;2023-08-01T02:58:01;1.23;;;0.80;;
13114;SDS011;6623;52.120;8.660;2023-08-01T03:00:27;0.73;;;0.70;;
13114;SDS011;6623;52.120;8.660;2023-08-01T03:02:53;0.70;;;0.70;;
13114;SDS011;6623;52.120;8.660;2023-08-01T03:05:18;1.07;;;0.80;;
13114;SDS011;6623;52.120;8.660;2023-08-01T03:07:44;1.10;;;0.80;;
13114;SDS011;6623;52.120;8.660;2023-08-01T03:10:09;0.70;;;0.70;;
13114;SDS011;6623;52.120;8.660;2023-08-01T03:12:36;0.80;;;0.80;;
13114;SDS011;6623;52.120;8.660;2023-08-01T03:15:02;0.77;;;0.67;;
13114;SDS011;6623;52.120;8.660;2023-08-01T03:17:28;0.80;;;0.80;;
13114;SDS011;6623;52.120;8.660;2023-08-01T03:19:53;0.60;;;0.60;;
13114;SDS011;6623;52.120;8.660;2023-08-01T03:22:19;1.20;;;0.70;;
13114;SDS011;6623;52.120;8.660;2023-08-01T03:24:44;0.87;;;0.80;;
13114;SDS011;6623;52.120;8.660;2023-08-01T03:27:10;0.67;;;0.67;;
13114;SDS011;6623;52.120;8.660;2023-08-01T03:29:35;0.80;;;0.60;;
13114;SDS011;6623;52.120;8.660;2023-08-01T03:32:01;0.90;;;0.90;;
13114;SDS011;6623;52.120;8.660;2023-08-01T03:34:26;0.73;;;0.73;;
13114;SDS011;6623;52.120;8.660;2023-08-01T03:36:52;1.33;;;0.60;;
13114;SDS011;6623;52.120;8.660;2023-08-01T03:39:17;0.90;;;0.80;;
13114;SDS011;6623;52.120;8.660;2023-08-01T03:41:43;0.60;;;0.60;;
13114;SDS011;6623;52.120;8.660;2023-08-01T03:44:09;1.53;;;0.60;;
13114;SDS011;6623;52.120;8.660;2023-08-01T03:46:34;0.93;;;0.70;;
13114;SDS011;6623;52.120;8.660;2023-08-01T03:49:00;1.17;;;0.63;;
13114;SDS011;6623;52.120;8.660;2023-08-01T03:51:25;0.90;;;0.63;;
13114;SDS011;6623;52.120;8.660;2023-08-01T03:53:51;0.70;;;0.70;;
13114;SDS011;6623;52.120;8.660;2023-08-01T03:56:16;1.10;;;0.70;;
13114;SDS011;6623;52.120;8.660;2023-08-01T03:58:42;1.00;;;0.80;;
13114;SDS011;6623;52.120;8.660;2023-08-01T04:01:07;1.10;;;0.70;;
13114;SDS011;6623;52.120;8.660;2023-08-01T04:03:33;0.70;;;0.60;;
13114;SDS011;6623;52.120;8.660;2023-08-01T04:05:58;1.00;;;0.80;;
13114;SDS011;6623;52.120;8.660;2023-08-01T04:08:24;0.60;;;0.60;;
13114;SDS011;6623;52.120;8.660;2023-08-01T04:10:49;0.60;;;0.60;;
13114;SDS011;6623;52.120;8.660;2023-08-01T04:13:15;0.90;;;0.80;;
13114;SDS011;6623;52.120;8.660;2023-08-01T04:15:41;0.60;;;0.60;;
13114;SDS011;6623;52.120;8.660;2023-08-01T04:18:06;0.80;;;0.60;;
13114;SDS011;6623;52.120;8.660;2023-08-01T04:20:32;0.60;;;0.60;;
13114;SDS011;6623;52.120;8.660;2023-08-01T04:22:57;1.90;;;0.80;;
13114;SDS011;6623;52.120;8.660;2023-08-01T04:25:23;1.10;;;0.73;;
13114;SDS011;6623;52.120;8.660;2023-08-01T04:27:51;1.10;;;0.70;;
13114;SDS011;6623;52.120;8.660;2023-08-01T04:30:17;0.60;;;0.57;;
13114;SDS011;6623;52.120;8.660;2023-08-01T04:32:43;0.77;;;0.77;;
13114;SDS011;6623;52.120;8.660;2023-08-01T04:35:08;0.93;;;0.80;;
13114;SDS011;6623;52.120;8.660;2023-08-01T04:37:34;0.70;;;0.70;;
13114;SDS011;6623;52.120;8.660;2023-08-01T04:39:59;0.87;;;0.70;;
13114;SDS011;6623;52.120;8.660;2023-08-01T04:42:25;0.60;;;0.60;;
13114;SDS011;6623;52.120;8.660;2023-08-01T04:44:50;1.57;;;0.70;;
13114;SDS011;6623;52.120;8.660;2023-08-01T04:47:16;0.70;;;0.70;;
13114;SDS011;6623;52.120;8.660;2023-08-01T04:49:44;1.27;;;0.70;;
13114;SDS011;6623;52.120;8.660;2023-08-01T04:52:09;0.70;;;0.70;;
13114;SDS011;6623;52.120;8.660;2023-08-01T04:54:35;0.80;;;0.73;;
13114;SDS011;6623;52.120;8.660;2023-08-01T04:57:00;0.60;;;0.60;;
13114;SDS011;6623;52.120;8.660;2023-08-01T04:59:26;0.90;;;0.80;;
13114;SDS011;6623;52.120;8.660;2023-08-01T05:01:51;1.23;;;0.70;;
13114;SDS011;6623;52.120;8.660;2023-08-01T05:04:17;1.50;;;0.70;;
13114;SDS011;6623;52.120;8.660;2023-08-01T05:06:42;0.63;;;0.63;;
13114;SDS011;6623;52.120;8.660;2023-08-01T05:09:08;1.00;;;0.77;;
13114;SDS011;6623;52.120;8.660;2023-08-01T05:11:33;0.73;;;0.73;;
13114;SDS011;6623;52.120;8.660;2023-08-01T05:13:59;1.90;;;0.70;;
13114;SDS011;6623;52.120;8.660;2023-08-01T05:16:24;0.97;;;0.80;;
13114;SDS011;6623;52.120;8.660;2023-08-01T05:18:50;0.67;;;0.67;;
13114;SDS011;6623;52.120;8.660;2023-08-01T05:21:15;0.70;;;0.70;;
13114;SDS011;6623;52.120;8.660;2023-08-01T05:23:41;0.80;;;0.80;;
13114;SDS011;6623;52.120;8.660;2023-08-01T05:26:06;0.60;;;0.60;;
13114;SDS011;6623;52.120;8.660;2023-08-01T05:28:32;0.97;;;0.70;;
13114;SDS011;6623;52.120;8.660;2023-08-01T05:30:58;3.27;;;0.80;;
13114;SDS011;6623;52.120;8.660;2023-08-01T05:33:23;1.30;;;1.00;;
13114;SDS011;6623;52.120;8.660;2023-08-01T05:35:49;1.00;;;0.80;;
13114;SDS011;6623;52.120;8.660;2023-08-01T05:38:15;0.87;;;0.60;;
13114;SDS011;6623;52.120;8.660;2023-08-01T05:40:41;0.97;;;0.60;;
13114;SDS011;6623;52.120;8.660;2023-08-01T05:43:06;0.70;;;0.70;;
13114;SDS011;6623;52.120;8.660;2023-08-01T05:45:33;0.97;;;0.77;;
13114;SDS011;6623;52.120;8.660;2023-08-01T05:47:59;1.37;;;0.70;;
13114;SDS011;6623;52.120;8.660;2023-08-01T05:50:25;0.80;;;0.70;;
13114;SDS011;6623;52.120;8.660;2023-08-01T05:52:51;1.97;;;0.83;;
13114;SDS011;6623;52.120;8.660;2023-08-01T05:55:16;1.67;;;0.87;;
13114;SDS011;6623;52.120;8.660;2023-08-01T05:57:42;0.80;;;0.70;;
13114;SDS011;6623;52.120;8.660;2023-08-01T06:00:07;0.77;;;0.77;;
13114;SDS011;6623;52.120;8.660;2023-08-01T06:02:33;1.17;;;0.60;;
13114;SDS011;6623;52.120;8.660;2023-08-01T06:04:59;1.00;;;0.90;;
13114;SDS011;6623;52.120;8.660;2023-08-01T06:07:24;0.80;;;0.80;;
13114;SDS011;6623;52.120;8.660;2023-08-01T06:09:50;1.13;;;0.80;;
13114;SDS011;6623;52.120;8.660;2023-08-01T06:12:17;1.10;;;0.70;;
13114;SDS011;6623;52.120;8.660;2023-08-01T06:14:43;2.23;;;0.77;;
13114;SDS011;6623;52.120;8.660;2023-08-01T06:17:09;1.77;;;0.97;;
13114;SDS011;6623;52.120;8.660;2023-08-01T06:19:35;1.00;;;0.80;;
13114;SDS011;6623;52.120;8.660;2023-08-01T06:22:00;1.43;;;0.90;;
13114;SDS011;6623;52.120;8.660;2023-08-01T06:24:26;1.40;;;1.00;;
13114;SDS011;6623;52.120;8.660;2023-08-01T06:26:51;1.23;;;1.03;;
13114;SDS011;6623;52.120;8.660;2023-08-01T06:29:17;1.63;;;0.80;;
13114;SDS011;6623;52.120;8.660;2023-08-01T06:31:42;1.60;;;1.00;;
13114;SDS011;6623;52.120;8.660;2023-08-01T06:34:08;1.27;;;0.90;;
13114;SDS011;6623;52.120;8.660;2023-08-01T06:36:33;1.47;;;0.97;;
13114;SDS011;6623;52.120;8.660;2023-08-01T06:39:00;1.07;;;0.90;;
13114;SDS011;6623;52.120;8.660;2023-08-01T06:41:25;1.00;;;0.90;;
13114;SDS011;6623;52.120;8.660;2023-08-01T06:43:51;0.87;;;0.73;;
13114;SDS011;6623;52.120;8.660;2023-08-01T06:46:16;1.30;;;0.97;;
13114;SDS011;6623;52.120;8.660;2023-08-01T06:48:42;1.10;;;1.00;;
13114;SDS011;6623;52.120;8.660;2023-08-01T06:51:07;1.77;;;0.80;;
13114;SDS011;6623;52.120;8.660;2023-08-01T06:53:33;1.43;;;1.03;;
13114;SDS011;6623;52.120;8.660;2023-08-01T06:55:58;2.23;;;1.00;;
13114;SDS011;6623;52.120;8.660;2023-08-01T06:58:24;1.50;;;0.90;;
13114;SDS011;6623;52.120;8.660;2023-08-01T07:00:50;1.20;;;1.10;;
13114;SDS011;6623;52.120;8.660;2023-08-01T07:03:16;1.47;;;1.10;;
13114;SDS011;6623;52.120;8.660;2023-08-01T07:05:42;2.40;;;1.00;;
13114;SDS011;6623;52.120;8.660;2023-08-01T07:08:07;1.93;;;1.20;;
13114;SDS011;6623;52.120;8.660;2023-08-01T07:10:36;1.40;;;1.10;;
13114;SDS011;6623;52.120;8.660;2023-08-01T07:13:02;3.07;;;1.07;;
13114;SDS011;6623;52.120;8.660;2023-08-01T07:15:29;1.77;;;1.10;;
13114;SDS011;6623;52.120;8.660;2023-08-01T07:17:55;2.53;;;1.20;;
13114;SDS011;6623;52.120;8.660;2023-08-01T07:20:21;2.13;;;1.20;;
13114;SDS011;6623;52.120;8.660;2023-08-01T07:22:47;2.43;;;1.10;;
13114;SDS011;6623;52.120;8.660;2023-08-01T07:25:12;2.00;;;1.30;;
13114;SDS011;6623;52.120;8.660;2023-08-01T07:27:38;1.90;;;1.30;;
13114;SDS011;6623;52.120;8.660;2023-08-01T07:30:04;2.57;;;1.33;;
13114;SDS011;6623;52.120;8.660;2023-08-01T07:32:30;2.20;;;1.20;;
13114;SDS011;6623;52.120;8.660;2023-08-01T07:34:56;2.00;;;1.37;;
13114;SDS011;6623;52.120;8.660;2023-08-01T07:37:21;2.33;;;1.27;;
13114;SDS011;6623;52.120;8.660;2023-08-01T07:39:47;2.57;;;1.30;;
13114;SDS011;6623;52.120;8.660;2023-08-01T07:42:14;2.23;;;1.27;;
13114;SDS011;6623;52.120;8.660;2023-08-01T07:44:39;2.17;;;1.20;;
13114;SDS011;6623;52.120;8.660;2023-08-01T07:47:05;1.53;;;1.30;;
13114;SDS011;6623;52.120;8.660;2023-08-01T07:49:30;1.97;;;1.37;;
13114;SDS011;6623;52.120;8.660;2023-08-01T07:51:56;1.97;;;1.23;;
13114;SDS011;6623;52.120;8.660;2023-08-01T07:54:21;1.77;;;1.20;;
13114;SDS011;6623;52.120;8.660;2023-08-01T07:56:48;2.20;;;1.43;;
13114;SDS011;6623;52.120;8.660;2023-08-01T07:59:14;2.13;;;1.30;;
13114;SDS011;6623;52.120;8.660;2023-08-01T08:01:40;2.60;;;1.40;;
13114;SDS011;6623;52.120;8.660;2023-08-01T08:04:06;4.17;;;1.60;;
13114;SDS011;6623;52.120;8.660;2023-08-01T08:06:31;1.57;;;1.30;;
13114;SDS011;6623;52.120;8.660;2023-08-01T08:08:57;2.03;;;1.40;;
13114;SDS011;6623;52.120;8.660;2023-08-01T08:11:22;2.40;;;1.33;;
13114;SDS011;6623;52.120;8.660;2023-08-01T08:13:48;3.80;;;1.33;;
13114;SDS011;6623;52.120;8.660;2023-08-01T08:16:14;2.30;;;1.37;;
13114;SDS011;6623;52.120;8.660;2023-08-01T08:18:39;2.53;;;1.27;;
13114;SDS011;6623;52.120;8.660;2023-08-01T08:21:05;2.67;;;1.10;;
13114;SDS011;6623;52.120;8.660;2023-08-01T08:23:30;1.67;;;1.30;;
13114;SDS011;6623;52.120;8.660;2023-08-01T08:25:56;2.07;;;1.50;;
13114;SDS011;6623;52.120;8.660;2023-08-01T08:28:28;2.27;;;1.70;;
13114;SDS011;6623;52.120;8.660;2023-08-01T08:30:55;2.47;;;1.30;;
13114;SDS011;6623;52.120;8.660;2023-08-01T08:33:21;3.33;;;1.30;;
13114;SDS011;6623;52.120;8.660;2023-08-01T08:35:47;2.30;;;1.30;;
13114;SDS011;6623;52.120;8.660;2023-08-01T08:38:13;2.50;;;1.50;;
13114;SDS011;6623;52.120;8.660;2023-08-01T08:40:40;2.50;;;1.50;;
13114;SDS011;6623;52.120;8.660;2023-08-01T08:43:08;1.90;;;1.40;;
13114;SDS011;6623;52.120;8.660;2023-08-01T08:45:35;2.10;;;1.40;;
13114;SDS011;6623;52.120;8.660;2023-08-01T08:48:07;1.73;;;1.30;;
13114;SDS011;6623;52.120;8.660;2023-08-01T08:50:37;1.93;;;1.40;;
13114;SDS011;6623;52.120;8.660;2023-08-01T08:53:03;3.33;;;1.30;;
13114;SDS011;6623;52.120;8.660;2023-08-01T08:55:30;1.43;;;1.20;;
13114;SDS011;6623;52.120;8.660;2023-08-01T08:57:56;3.53;;;1.83;;
13114;SDS011;6623;52.120;8.660;2023-08-01T09:00:24;2.77;;;1.67;;
13114;SDS011;6623;52.120;8.660;2023-08-01T09:02:52;1.67;;;1.40;;
13114;SDS011;6623;52.120;8.660;2023-08-01T09:05:18;2.70;;;1.43;;
13114;SDS011;6623;52.120;8.660;2023-08-01T09:07:45;2.07;;;1.43;;
13114;SDS011;6623;52.120;8.660;2023-08-01T09:10:14;2.63;;;1.60;;
13114;SDS011;6623;52.120;8.660;2023-08-01T09:12:40;1.93;;;1.30;;
13114;SDS011;6623;52.120;8.660;2023-08-01T09:15:05;1.70;;;1.40;;
13114;SDS011;6623;52.120;8.660;2023-08-01T09:17:32;2.30;;;1.50;;
13114;SDS011;6623;52.120;8.660;2023-08-01T09:20:04;2.67;;;1.60;;
13114;SDS011;6623;52.120;8.660;2023-08-01T09:22:46;2.00;;;1.40;;
13114;SDS011;6623;52.120;8.660;2023-08-01T09:25:12;2.23;;;1.57;;
13114;SDS011;6623;52.120;8.660;2023-08-01T09:27:38;2.37;;;1.70;;
13114;SDS011;6623;52.120;8.660;2023-08-01T09:30:05;2.93;;;1.43;;
13114;SDS011;6623;52.120;8.660;2023-08-01T09:32:36;2.17;;;1.40;;
13114;SDS011;6623;52.120;8.660;2023-08-01T09:35:02;1.67;;;1.27;;
13114;SDS011;6623;52.120;8.660;2023-08-01T09:37:37;1.73;;;1.43;;
13114;SDS011;6623;52.120;8.660;2023-08-01T09:40:07;1.63;;;1.33;;
13114;SDS011;6623;52.120;8.660;2023-08-01T09:42:37;2.63;;;1.47;;
13114;SDS011;6623;52.120;8.660;2023-08-01T09:45:17;3.23;;;1.67;;
13114;SDS011;6623;52.120;8.660;2023-08-01T09:47:43;2.37;;;1.63;;
13114;SDS011;6623;52.120;8.660;2023-08-01T09:50:10;2.00;;;1.37;;
13114;SDS011;6623;52.120;8.660;2023-08-01T09:52:38;2.87;;;1.50;;
13114;SDS011;6623;52.120;8.660;2023-08-01T09:55:04;2.70;;;1.60;;
13114;SDS011;6623;52.120;8.660;2023-08-01T09:57:30;1.53;;;1.40;;
13114;SDS011;6623;52.120;8.660;2023-08-01T09:59:57;2.87;;;1.70;;
13114;SDS011;6623;52.120;8.660;2023-08-01T10:02:24;3.43;;;1.53;;
13114;SDS011;6623;52.120;8.660;2023-08-01T10:04:54;1.93;;;1.37;;
13114;SDS011;6623;52.120;8.660;2023-08-01T10:07:23;3.77;;;1.90;;
13114;SDS011;6623;52.120;8.660;2023-08-01T10:09:51;2.60;;;1.73;;
13114;SDS011;6623;52.120;8.660;2023-08-01T10:12:22;2.10;;;1.50;;
13114;SDS011;6623;52.120;8.660;2023-08-01T10:14:52;3.23;;;1.60;;
13114;SDS011;6623;52.120;8.660;2023-08-01T10:17:18;1.90;;;1.50;;
13114;SDS011;6623;52.120;8.660;2023-08-01T10:19:46;2.67;;;1.57;;
13114;SDS011;6623;52.120;8.660;2023-08-01T10:22:13;3.47;;;1.57;;
13114;SDS011;6623;52.120;8.660;2023-08-01T10:24:39;2.93;;;1.70;;
13114;SDS011;6623;52.120;8.660;2023-08-01T10:27:13;3.40;;;1.57;;
13114;SDS011;6623;52.120;8.660;2023-08-01T10:29:38;2.53;;;1.50;;
13114;SDS011;6623;52.120;8.660;2023-08-01T10:32:06;2.37;;;1.67;;
13114;SDS011;6623;52.120;8.660;2023-08-01T10:34:31;1.50;;;1.40;;
13114;SDS011;6623;52.120;8.660;2023-08-01T10:36:57;2.43;;;1.40;;
13114;SDS011;6623;52.120;8.660;2023-08-01T10:39:25;2.60;;;1.73;;
13114;SDS011;6623;52.120;8.660;2023-08-01T10:42:01;3.47;;;1.60;;
13114;SDS011;6623;52.120;8.660;2023-08-01T10:44:29;2.53;;;1.60;;
13114;SDS011;6623;52.120;8.660;2023-08-01T10:46:59;2.27;;;1.33;;
13114;SDS011;6623;52.120;8.660;2023-08-01T10:52:02;2.50;;;1.60;;
13114;SDS011;6623;52.120;8.660;2023-08-01T10:54:29;2.37;;;1.60;;
13114;SDS011;6623;52.120;8.660;2023-08-01T10:56:55;2.80;;;1.70;;
13114;SDS011;6623;52.120;8.660;2023-08-01T10:59:25;2.20;;;1.60;;
13114;SDS011;6623;52.120;8.660;2023-08-01T11:01:57;2.00;;;1.60;;
13114;SDS011;6623;52.120;8.660;2023-08-01T11:04:24;2.57;;;1.70;;
13114;SDS011;6623;52.120;8.660;2023-08-01T11:06:50;5.20;;;1.70;;
13114;SDS011;6623;52.120;8.660;2023-08-01T11:09:21;4.23;;;2.03;;
13114;SDS011;6623;52.120;8.660;2023-08-01T11:11:50;2.43;;;1.70;;
13114;SDS011;6623;52.120;8.660;2023-08-01T11:14:21;3.27;;;1.90;;
13114;SDS011;6623;52.120;8.660;2023-08-01T11:16:48;2.40;;;1.57;;
13114;SDS011;6623;52.120;8.660;2023-08-01T11:19:18;2.53;;;1.63;;
13114;SDS011;6623;52.120;8.660;2023-08-01T11:21:45;1.97;;;1.53;;
13114;SDS011;6623;52.120;8.660;2023-08-01T11:24:11;2.30;;;1.57;;
13114;SDS011;6623;52.120;8.660;2023-08-01T11:26:40;2.87;;;1.60;;
13114;SDS011;6623;52.120;8.660;2023-08-01T11:29:10;2.73;;;1.60;;
13114;SDS011;6623;52.120;8.660;2023-08-01T11:31:36;3.37;;;1.80;;
13114;SDS011;6623;52.120;8.660;2023-08-01T11:34:02;2.57;;;1.60;;
13114;SDS011;6623;52.120;8.660;2023-08-01T11:36:28;2.27;;;1.67;;
13114;SDS011;6623;52.120;8.660;2023-08-01T11:38:56;2.20;;;1.77;;
13114;SDS011;6623;52.120;8.660;2023-08-01T11:41:23;2.40;;;1.50;;
13114;SDS011;6623;52.120;8.660;2023-08-01T11:43:50;2.23;;;1.60;;
13114;SDS011;6623;52.120;8.660;2023-08-01T11:46:16;2.57;;;1.70;;
13114;SDS011;6623;52.120;8.660;2023-08-01T11:48:45;2.37;;;1.70;;
13114;SDS011;6623;52.120;8.660;2023-08-01T11:51:11;2.13;;;1.60;;
13114;SDS011;6623;52.120;8.660;2023-08-01T11:53:37;3.47;;;1.70;;
13114;SDS011;6623;52.120;8.660;2023-08-01T11:56:04;2.30;;;1.43;;
13114;SDS011;6623;52.120;8.660;2023-08-01T11:58:30;2.80;;;1.70;;
13114;SDS011;6623;52.120;8.660;2023-08-01T12:01:04;2.50;;;1.73;;
13114;SDS011;6623;52.120;8.660;2023-08-01T12:03:30;2.53;;;1.80;;
13114;SDS011;6623;52.120;8.660;2023-08-01T12:06:05;2.60;;;1.73;;
13114;SDS011;6623;52.120;8.660;2023-08-01T12:08:33;3.00;;;1.60;;
13114;SDS011;6623;52.120;8.660;2023-08-01T12:10:59;3.63;;;1.70;;
13114;SDS011;6623;52.120;8.660;2023-08-01T12:13:25;2.73;;;1.60;;
13114;SDS011;6623;52.120;8.660;2023-08-01T12:15:52;3.50;;;1.90;;
13114;SDS011;6623;52.120;8.660;2023-08-01T12:18:19;3.67;;;1.63;;
13114;SDS011;6623;52.120;8.660;2023-08-01T12:20:48;2.20;;;1.50;;
13114;SDS011;6623;52.120;8.660;2023-08-01T12:23:14;3.13;;;1.60;;
13114;SDS011;6623;52.120;8.660;2023-08-01T12:25:39;2.03;;;1.40;;
13114;SDS011;6623;52.120;8.660;2023-08-01T12:28:05;2.90;;;1.90;;
13114;SDS011;6623;52.120;8.660;2023-08-01T12:30:30;2.80;;;1.57;;
13114;SDS011;6623;52.120;8.660;2023-08-01T12:32:56;2.10;;;1.37;;
13114;SDS011;6623;52.120;8.660;2023-08-01T12:35:21;3.43;;;1.70;;
13114;SDS011;6623;52.120;8.660;2023-08-01T12:37:47;3.57;;;1.87;;
13114;SDS011;6623;52.120;8.660;2023-08-01T12:40:12;3.13;;;1.70;;
13114;SDS011;6623;52.120;8.660;2023-08-01T12:42:38;2.80;;;1.60;;
13114;SDS011;6623;52.120;8.660;2023-08-01T12:45:03;3.03;;;1.87;;
13114;SDS011;6623;52.120;8.660;2023-08-01T12:47:29;3.40;;;1.60;;
13114;SDS011;6623;52.120;8.660;2023-08-01T12:49:55;2.13;;;1.70;;
13114;SDS011;6623;52.120;8.660;2023-08-01T12:52:24;3.50;;;1.87;;
13114;SDS011;6623;52.120;8.660;2023-08-01T12:54:50;3.50;;;1.50;;
13114;SDS011;6623;52.120;8.660;2023-08-01T12:57:16;2.03;;;1.50;;
13114;SDS011;6623;52.120;8.660;2023-08-01T12:59:41;2.30;;;1.70;;
13114;SDS011;6623;52.120;8.660;2023-08-01T13:02:07;1.70;;;1.40;;
13114;SDS011;6623;52.120;8.660;2023-08-01T13:04:33;2.47;;;1.60;;
13114;SDS011;6623;52.120;8.660;2023-08-01T13:06:59;1.73;;;1.50;;
13114;SDS011;6623;52.120;8.660;2023-08-01T13:09:25;3.30;;;1.70;;
13114;SDS011;6623;52.120;8.660;2023-08-01T13:11:51;1.77;;;1.40;;
13114;SDS011;6623;52.120;8.660;2023-08-01T13:14:16;2.20;;;1.50;;
13114;SDS011;6623;52.120;8.660;2023-08-01T13:16:42;2.90;;;1.63;;
13114;SDS011;6623;52.120;8.660;2023-08-01T13:19:07;2.00;;;1.70;;
13114;SDS011;6623;52.120;8.660;2023-08-01T13:21:33;2.93;;;1.40;;
13114;SDS011;6623;52.120;8.660;2023-08-01T13:24:02;2.03;;;1.40;;
13114;SDS011;6623;52.120;8.660;2023-08-01T13:26:30;2.43;;;1.60;;
13114;SDS011;6623;52.120;8.660;2023-08-01T13:28:57;3.23;;;1.70;;
13114;SDS011;6623;52.120;8.660;2023-08-01T13:31:23;2.60;;;1.50;;
13114;SDS011;6623;52.120;8.660;2023-08-01T13:33:48;2.23;;;1.50;;
13114;SDS011;6623;52.120;8.660;2023-08-01T13:36:14;2.50;;;1.70;;
13114;SDS011;6623;52.120;8.660;2023-08-01T13:38:40;2.17;;;1.53;;
13114;SDS011;6623;52.120;8.660;2023-08-01T13:41:05;3.33;;;1.60;;
13114;SDS011;6623;52.120;8.660;2023-08-01T13:43:31;1.80;;;1.50;;
13114;SDS011;6623;52.120;8.660;2023-08-01T13:45:56;2.83;;;1.40;;
13114;SDS011;6623;52.120;8.660;2023-08-01T13:48:22;1.60;;;1.47;;
13114;SDS011;6623;52.120;8.660;2023-08-01T13:50:47;2.27;;;1.50;;
13114;SDS011;6623;52.120;8.660;2023-08-01T13:53:13;2.70;;;1.67;;
13114;SDS011;6623;52.120;8.660;2023-08-01T13:55:39;2.80;;;1.53;;
13114;SDS011;6623;52.120;8.660;2023-08-01T13:58:05;1.93;;;1.30;;
13114;SDS011;6623;52.120;8.660;2023-08-01T14:00:31;1.67;;;1.30;;
13114;SDS011;6623;52.120;8.660;2023-08-01T14:02:57;2.17;;;1.40;;
13114;SDS011;6623;52.120;8.660;2023-08-01T14:05:25;1.77;;;1.27;;
13114;SDS011;6623;52.120;8.660;2023-08-01T14:07:51;2.43;;;1.60;;
13114;SDS011;6623;52.120;8.660;2023-08-01T14:10:17;1.80;;;1.20;;
13114;SDS011;6623;52.120;8.660;2023-08-01T14:12:43;2.77;;;1.40;;
13114;SDS011;6623;52.120;8.660;2023-08-01T14:15:09;2.00;;;1.30;;
13114;SDS011;6623;52.120;8.660;2023-08-01T14:17:34;1.80;;;1.57;;
13114;SDS011;6623;52.120;8.660;2023-08-01T14:20:00;2.67;;;1.50;;
13114;SDS011;6623;52.120;8.660;2023-08-01T14:22:28;1.90;;;1.20;;
13114;SDS011;6623;52.120;8.660;2023-08-01T14:24:54;2.00;;;1.27;;
13114;SDS011;6623;52.120;8.660;2023-08-01T14:27:20;2.37;;;1.50;;
13114;SDS011;6623;52.120;8.660;2023-08-01T14:29:45;1.80;;;1.30;;
13114;SDS011;6623;52.120;8.660;2023-08-01T14:32:11;1.77;;;1.40;;
13114;SDS011;6623;52.120;8.660;2023-08-01T14:34:36;1.73;;;1.30;;
13114;SDS011;6623;52.120;8.660;2023-08-01T14:37:03;2.77;;;1.60;;
13114;SDS011;6623;52.120;8.660;2023-08-01T14:39:29;1.67;;;1.30;;
13114;SDS011;6623;52.120;8.660;2023-08-01T14:41:55;1.83;;;1.30;;
13114;SDS011;6623;52.120;8.660;2023-08-01T14:44:20;1.80;;;1.30;;
13114;SDS011;6623;52.120;8.660;2023-08-01T14:46:46;1.97;;;1.20;;
13114;SDS011;6623;52.120;8.660;2023-08-01T14:49:11;2.03;;;1.23;;
13114;SDS011;6623;52.120;8.660;2023-08-01T14:51:37;2.20;;;1.30;;
13114;SDS011;6623;52.120;8.660;2023-08-01T14:54:02;2.47;;;1.20;;
13114;SDS011;6623;52.120;8.660;2023-08-01T14:56:28;2.23;;;1.30;;